sensor_id;sensor_type;location;lat;lon;timestamp;pressure;altitude;pressure_sealevel;temperature;humidity
30554;BME280;17335;50.720;7.452;2023-05-01T00:01:40;99346.13;;;11.73;100.00
30554;BME280;17335;50.720;7.452;2023-05-01T00:04:06;99345.94;;;11.56;100.00
30554;BME280;17335;50.720;7.452;2023-05-01T00:06:33;99342.56;;;11.54;100.00
30554;BME280;17335;50.720;7.452;2023-05-01T00:09:00;99334.69;;;11.43;100.00
30554;BME280;17335;50.720;7.452;2023-05-01T00:11:26;99341.94;;;11.33;100.00
30554;BME280;17335;50.720;7.452;2023-05-01T00:13:53;99338.97;;;11.36;100.00
30554;BME280;17335;50.720;7.452;2023-05-01T00:16:19;99333.06;;;11.32;100.00
30554;BME280;17335;50.720;7.452;2023-05-01T00:18:46;99329.94;;;11.37;100.00
30554;BME280;17335;50.720;7.452;2023-05-01T00:21:13;99324.84;;;11.34;100.00
30554;BME280;17335;50.720;7.452;2023-05-01T00:23:39;99334.50;;;11.26;100.00
30554;BME280;17335;50.720;7.452;2023-05-01T00:26:06;99326.63;;;11.15;100.00
30554;BME280;17335;50.720;7.452;2023-05-01T00:28:33;99323.53;;;11.10;100.00
30554;BME280;17335;50.720;7.452;2023-05-01T00:30:59;99319.63;;;11.04;100.00
30554;BME280;17335;50.720;7.452;2023-05-01T00:33:26;99321.94;;;10.89;100.00
30554;BME280;17335;50.720;7.452;2023-05-01T00:35:52;99319.44;;;10.78;100.00
30554;BME280;17335;50.720;7.452;2023-05-01T00:38:21;99326.28;;;10.63;100.00
30554;BME280;17335;50.720;7.452;2023-05-01T00:40:49;99324.84;;;10.59;100.00
30554;BME280;17335;50.720;7.452;2023-05-01T00:43:16;99321.34;;;10.48;100.00
30554;BME280;17335;50.720;7.452;2023-05-01T00:45:43;99326.16;;;10.45;100.00
30554;BME280;17335;50.720;7.452;2023-05-01T00:48:12;99319.28;;;10.42;100.00
30554;BME280;17335;50.720;7.452;2023-05-01T00:50:39;99307.09;;;10.38;100.00
30554;BME280;17335;50.720;7.452;2023-05-01T00:53:06;99314.47;;;10.26;100.00
30554;BME280;17335;50.720;7.452;2023-05-01T00:55:33;99305.72;;;10.14;100.00
30554;BME280;17335;50.720;7.452;2023-05-01T00:58:01;99305.16;;;10.01;100.00
30554;BME280;17335;50.720;7.452;2023-05-01T01:00:29;99312.50;;;9.99;100.00
30554;BME280;17335;50.720;7.452;2023-05-01T01:02:56;99304.03;;;9.94;100.00
30554;BME280;17335;50.720;7.452;2023-05-01T01:05:24;99300.94;;;9.89;100.00
30554;BME280;17335;50.720;7.452;2023-05-01T01:08:22;99300.78;;;9.81;100.00
30554;BME280;17335;50.720;7.452;2023-05-01T01:10:54;99301.22;;;9.76;100.00
30554;BME280;17335;50.720;7.452;2023-05-01T01:13:34;99296.13;;;9.63;100.00
30554;BME280;17335;50.720;7.452;2023-05-01T01:16:20;99293.84;;;9.49;100.00
30554;BME280;17335;50.720;7.452;2023-05-01T01:18:57;99297.81;;;9.45;100.00
30554;BME280;17335;50.720;7.452;2023-05-01T01:21:31;99294.97;;;9.36;100.00
30554;BME280;17335;50.720;7.452;2023-05-01T01:24:34;99287.06;;;9.35;100.00
30554;BME280;17335;50.720;7.452;2023-05-01T01:32:57;99291.09;;;9.10;100.00
30554;BME280;17335;50.720;7.452;2023-05-01T01:35:27;99288.00;;;9.05;100.00
30554;BME280;17335;50.720;7.452;2023-05-01T01:38:05;99288.13;;;9.03;100.00
30554;BME280;17335;50.720;7.452;2023-05-01T01:40:40;99283.88;;;9.00;100.00
30554;BME280;17335;50.720;7.452;2023-05-01T01:43:11;99279.53;;;8.99;100.00
30554;BME280;17335;50.720;7.452;2023-05-01T01:45:41;99280.22;;;9.01;100.00
30554;BME280;17335;50.720;7.452;2023-05-01T01:48:13;99273.72;;;8.94;100.00
30554;BME280;17335;50.720;7.452;2023-05-01T01:50:41;99276.97;;;8.98;100.00
30554;BME280;17335;50.720;7.452;2023-05-01T01:53:10;99272.84;;;8.94;100.00
30554;BME280;17335;50.720;7.452;2023-05-01T01:55:39;99280.75;;;8.95;100.00
30554;BME280;17335;50.720;7.452;2023-05-01T01:58:08;99273.59;;;8.96;100.00
30554;BME280;17335;50.720;7.452;2023-05-01T02:00:38;99264.69;;;8.95;100.00
30554;BME280;17335;50.720;7.452;2023-05-01T02:03:08;99260.34;;;8.94;100.00
30554;BME280;17335;50.720;7.452;2023-05-01T02:05:38;99260.34;;;8.94;100.00
30554;BME280;17335;50.720;7.452;2023-05-01T02:08:06;99264.13;;;8.92;100.00
30554;BME280;17335;50.720;7.452;2023-05-01T02:10:35;99262.44;;;8.91;100.00
30554;BME280;17335;50.720;7.452;2023-05-01T02:13:02;99252.97;;;8.87;100.00
30554;BME280;17335;50.720;7.452;2023-05-01T02:15:31;99255.34;;;8.80;100.00
30554;BME280;17335;50.720;7.452;2023-05-01T02:18:01;99251.00;;;8.79;100.00
30554;BME280;17335;50.720;7.452;2023-05-01T02:20:29;99261.53;;;8.71;100.00
30554;BME280;17335;50.720;7.452;2023-05-01T02:22:56;99252.22;;;8.65;100.00
30554;BME280;17335;50.720;7.452;2023-05-01T02:25:24;99254.31;;;8.61;100.00
30554;BME280;17335;50.720;7.452;2023-05-01T02:27:56;99252.03;;;8.57;100.00
30554;BME280;17335;50.720;7.452;2023-05-01T02:30:23;99248.34;;;8.48;100.00
30554;BME280;17335;50.720;7.452;2023-05-01T02:32:49;99254.16;;;8.42;100.00
30554;BME280;17335;50.720;7.452;2023-05-01T02:35:16;99249.09;;;8.39;100.00
30554;BME280;17335;50.720;7.452;2023-05-01T02:37:43;99249.38;;;8.36;100.00
30554;BME280;17335;50.720;7.452;2023-05-01T02:40:12;99252.19;;;8.34;100.00
30554;BME280;17335;50.720;7.452;2023-05-01T02:42:42;99249.63;;;8.33;100.00
30554;BME280;17335;50.720;7.452;2023-05-01T02:45:17;99238.09;;;8.32;100.00
30554;BME280;17335;50.720;7.452;2023-05-01T02:47:45;99239.91;;;8.32;100.00
30554;BME280;17335;50.720;7.452;2023-05-01T02:50:14;99231.75;;;8.33;100.00
30554;BME280;17335;50.720;7.452;2023-05-01T02:52:43;99230.66;;;8.36;100.00
30554;BME280;17335;50.720;7.452;2023-05-01T02:55:10;99230.34;;;8.39;100.00
30554;BME280;17335;50.720;7.452;2023-05-01T02:57:37;99224.88;;;8.40;100.00
30554;BME280;17335;50.720;7.452;2023-05-01T03:00:04;99223.91;;;8.41;100.00
30554;BME280;17335;50.720;7.452;2023-05-01T03:02:34;99222.34;;;8.39;100.00
30554;BME280;17335;50.720;7.452;2023-05-01T03:05:01;99225.00;;;8.39;100.00
30554;BME280;17335;50.720;7.452;2023-05-01T03:07:27;99226.72;;;8.40;100.00
30554;BME280;17335;50.720;7.452;2023-05-01T03:10:02;99224.66;;;8.43;100.00
30554;BME280;17335;50.720;7.452;2023-05-01T03:12:30;99221.13;;;8.43;100.00
30554;BME280;17335;50.720;7.452;2023-05-01T03:14:56;99213.56;;;8.48;100.00
30554;BME280;17335;50.720;7.452;2023-05-01T03:17:23;99216.66;;;8.53;100.00
30554;BME280;17335;50.720;7.452;2023-05-01T03:19:50;99222.72;;;8.55;100.00
30554;BME280;17335;50.720;7.452;2023-05-01T03:22:16;99218.09;;;8.57;100.00
30554;BME280;17335;50.720;7.452;2023-05-01T03:24:44;99214.44;;;8.58;100.00
30554;BME280;17335;50.720;7.452;2023-05-01T03:27:10;99209.94;;;8.59;100.00
30554;BME280;17335;50.720;7.452;2023-05-01T03:29:37;99211.63;;;8.60;100.00
30554;BME280;17335;50.720;7.452;2023-05-01T03:32:04;99199.09;;;8.60;100.00
30554;BME280;17335;50.720;7.452;2023-05-01T03:34:31;99199.66;;;8.64;100.00
30554;BME280;17335;50.720;7.452;2023-05-01T03:36:57;99202.06;;;8.67;100.00
30554;BME280;17335;50.720;7.452;2023-05-01T03:39:24;99193.91;;;8.69;100.00
30554;BME280;17335;50.720;7.452;2023-05-01T03:41:50;99196.59;;;8.69;100.00
30554;BME280;17335;50.720;7.452;2023-05-01T03:44:17;99191.94;;;8.71;100.00
30554;BME280;17335;50.720;7.452;2023-05-01T03:46:44;99194.34;;;8.74;100.00
30554;BME280;17335;50.720;7.452;2023-05-01T03:49:11;99199.00;;;8.72;100.00
30554;BME280;17335;50.720;7.452;2023-05-01T03:51:37;99194.63;;;8.71;100.00
30554;BME280;17335;50.720;7.452;2023-05-01T03:54:04;99198.56;;;8.67;100.00
30554;BME280;17335;50.720;7.452;2023-05-01T03:56:30;99191.38;;;8.67;100.00
30554;BME280;17335;50.720;7.452;2023-05-01T03:59:01;99200.50;;;8.64;100.00
30554;BME280;17335;50.720;7.452;2023-05-01T04:01:27;99195.16;;;8.64;100.00
30554;BME280;17335;50.720;7.452;2023-05-01T04:03:54;99193.50;;;8.73;100.00
30554;BME280;17335;50.720;7.452;2023-05-01T04:06:20;99186.88;;;8.77;100.00
30554;BME280;17335;50.720;7.452;2023-05-01T04:08:48;99189.25;;;8.71;100.00
30554;BME280;17335;50.720;7.452;2023-05-01T04:11:16;99187.03;;;8.76;100.00
30554;BME280;17335;50.720;7.452;2023-05-01T04:13:42;99180.69;;;8.77;100.00
30554;BME280;17335;50.720;7.452;2023-05-01T04:16:09;99187.72;;;8.78;100.00
30554;BME280;17335;50.720;7.452;2023-05-01T04:18:35;99180.69;;;8.77;100.00
30554;BME280;17335;50.720;7.452;2023-05-01T04:21:02;99182.63;;;8.75;100.00
30554;BME280;17335;50.720;7.452;2023-05-01T04:23:29;99182.94;;;8.72;100.00
30554;BME280;17335;50.720;7.452;2023-05-01T04:25:56;99175.88;;;8.71;100.00
30554;BME280;17335;50.720;7.452;2023-05-01T04:28:22;99177.72;;;8.80;100.00
30554;BME280;17335;50.720;7.452;2023-05-01T04:30:49;99168.03;;;8.79;100.00
30554;BME280;17335;50.720;7.452;2023-05-01T04:33:15;99169.69;;;8.80;100.00
30554;BME280;17335;50.720;7.452;2023-05-01T04:35:42;99167.44;;;8.75;100.00
30554;BME280;17335;50.720;7.452;2023-05-01T04:38:08;99170.13;;;8.85;100.00
30554;BME280;17335;50.720;7.452;2023-05-01T04:40:35;99167.31;;;8.77;100.00
30554;BME280;17335;50.720;7.452;2023-05-01T04:43:02;99164.22;;;8.81;100.00
30554;BME280;17335;50.720;7.452;2023-05-01T04:45:28;99161.53;;;8.81;100.00
30554;BME280;17335;50.720;7.452;2023-05-01T04:47:55;99168.88;;;8.89;100.00
30554;BME280;17335;50.720;7.452;2023-05-01T04:50:22;99164.38;;;8.90;100.00
30554;BME280;17335;50.720;7.452;2023-05-01T04:52:48;99168.88;;;8.89;100.00
30554;BME280;17335;50.720;7.452;2023-05-01T04:55:15;99169.88;;;8.98;100.00
30554;BME280;17335;50.720;7.452;2023-05-01T04:57:43;99165.09;;;9.01;100.00
30554;BME280;17335;50.720;7.452;2023-05-01T05:00:10;99172.28;;;9.11;100.00
30554;BME280;17335;50.720;7.452;2023-05-01T05:02:36;99162.72;;;9.08;100.00
30554;BME280;17335;50.720;7.452;2023-05-01T05:05:04;99169.03;;;9.07;100.00
30554;BME280;17335;50.720;7.452;2023-05-01T05:07:31;99164.66;;;9.16;100.00
30554;BME280;17335;50.720;7.452;2023-05-01T05:09:57;99167.22;;;9.17;100.00
30554;BME280;17335;50.720;7.452;2023-05-01T05:12:24;99164.13;;;9.22;100.00
30554;BME280;17335;50.720;7.452;2023-05-01T05:14:51;99162.56;;;9.19;100.00
30554;BME280;17335;50.720;7.452;2023-05-01T05:17:17;99166.94;;;9.20;100.00
30554;BME280;17335;50.720;7.452;2023-05-01T05:19:44;99164.53;;;9.17;100.00
30554;BME280;17335;50.720;7.452;2023-05-01T05:22:11;99164.13;;;9.32;100.00
30554;BME280;17335;50.720;7.452;2023-05-01T05:24:37;99164.84;;;9.34;100.00
30554;BME280;17335;50.720;7.452;2023-05-01T05:27:04;99166.50;;;9.45;100.00
30554;BME280;17335;50.720;7.452;2023-05-01T05:29:32;99159.59;;;9.52;100.00
30554;BME280;17335;50.720;7.452;2023-05-01T05:32:00;99166.50;;;9.54;100.00
30554;BME280;17335;50.720;7.452;2023-05-01T05:34:26;99160.00;;;9.57;100.00
30554;BME280;17335;50.720;7.452;2023-05-01T05:36:53;99161.84;;;9.66;100.00
30554;BME280;17335;50.720;7.452;2023-05-01T05:39:22;99159.31;;;9.65;100.00
30554;BME280;17335;50.720;7.452;2023-05-01T05:41:49;99156.59;;;9.74;100.00
30554;BME280;17335;50.720;7.452;2023-05-01T05:44:17;99150.25;;;9.85;100.00
30554;BME280;17335;50.720;7.452;2023-05-01T05:46:44;99152.84;;;10.05;100.00
30554;BME280;17335;50.720;7.452;2023-05-01T05:49:11;99145.34;;;10.18;100.00
30554;BME280;17335;50.720;7.452;2023-05-01T05:51:37;99146.56;;;10.34;100.00
30554;BME280;17335;50.720;7.452;2023-05-01T05:54:04;99146.91;;;10.48;100.00
30554;BME280;17335;50.720;7.452;2023-05-01T05:56:30;99148.38;;;10.33;100.00
30554;BME280;17335;50.720;7.452;2023-05-01T05:58:57;99144.53;;;10.45;100.00
30554;BME280;17335;50.720;7.452;2023-05-01T06:01:24;99144.78;;;10.52;100.00
30554;BME280;17335;50.720;7.452;2023-05-01T06:03:50;99136.63;;;10.72;100.00
30554;BME280;17335;50.720;7.452;2023-05-01T06:06:17;99130.19;;;10.82;100.00
30554;BME280;17335;50.720;7.452;2023-05-01T06:08:43;99138.44;;;10.99;100.00
30554;BME280;17335;50.720;7.452;2023-05-01T06:11:11;99132.22;;;11.16;100.00
30554;BME280;17335;50.720;7.452;2023-05-01T06:13:39;99125.97;;;11.34;100.00
30554;BME280;17335;50.720;7.452;2023-05-01T06:16:06;99120.75;;;11.50;100.00
30554;BME280;17335;50.720;7.452;2023-05-01T06:18:33;99123.75;;;11.47;100.00
30554;BME280;17335;50.720;7.452;2023-05-01T06:20:59;99124.78;;;11.54;100.00
30554;BME280;17335;50.720;7.452;2023-05-01T06:23:26;99127.47;;;11.54;100.00
30554;BME280;17335;50.720;7.452;2023-05-01T06:25:53;99127.19;;;11.57;100.00
30554;BME280;17335;50.720;7.452;2023-05-01T06:28:20;99123.84;;;11.63;100.00
30554;BME280;17335;50.720;7.452;2023-05-01T06:30:47;99116.00;;;11.70;100.00
30554;BME280;17335;50.720;7.452;2023-05-01T06:33:13;99121.22;;;11.72;100.00
30554;BME280;17335;50.720;7.452;2023-05-01T06:35:40;99114.91;;;11.81;100.00
30554;BME280;17335;50.720;7.452;2023-05-01T06:38:07;99117.91;;;11.78;100.00
30554;BME280;17335;50.720;7.452;2023-05-01T06:40:33;99119.28;;;11.82;100.00
30554;BME280;17335;50.720;7.452;2023-05-01T06:43:01;99117.94;;;11.86;100.00
30554;BME280;17335;50.720;7.452;2023-05-01T06:45:28;99106.84;;;11.81;100.00
30554;BME280;17335;50.720;7.452;2023-05-01T06:47:54;99122.16;;;11.89;100.00
30554;BME280;17335;50.720;7.452;2023-05-01T06:50:22;99111.97;;;11.92;100.00
30554;BME280;17335;50.720;7.452;2023-05-01T06:52:49;99118.56;;;11.98;100.00
30554;BME280;17335;50.720;7.452;2023-05-01T06:55:16;99110.53;;;12.06;100.00
30554;BME280;17335;50.720;7.452;2023-05-01T06:57:42;99114.97;;;12.15;100.00
30554;BME280;17335;50.720;7.452;2023-05-01T07:00:10;99108.25;;;12.19;100.00
30554;BME280;17335;50.720;7.452;2023-05-01T07:02:36;99115.50;;;12.27;100.00
30554;BME280;17335;50.720;7.452;2023-05-01T07:05:04;99115.34;;;12.29;100.00
30554;BME280;17335;50.720;7.452;2023-05-01T07:07:31;99109.84;;;12.38;100.00
30554;BME280;17335;50.720;7.452;2023-05-01T07:09:57;99107.19;;;12.47;100.00
30554;BME280;17335;50.720;7.452;2023-05-01T07:12:25;99113.09;;;12.50;100.00
30554;BME280;17335;50.720;7.452;2023-05-01T07:14:52;99102.19;;;12.60;100.00
30554;BME280;17335;50.720;7.452;2023-05-01T07:17:18;99104.03;;;12.68;100.00
30554;BME280;17335;50.720;7.452;2023-05-01T07:19:44;99104.25;;;12.83;100.00
30554;BME280;17335;50.720;7.452;2023-05-01T07:22:11;99103.56;;;12.81;100.00
30554;BME280;17335;50.720;7.452;2023-05-01T07:24:37;99099.69;;;12.75;100.00
30554;BME280;17335;50.720;7.452;2023-05-01T07:27:04;99102.91;;;12.70;100.00
30554;BME280;17335;50.720;7.452;2023-05-01T07:29:31;99092.78;;;12.81;100.00
30554;BME280;17335;50.720;7.452;2023-05-01T07:31:58;99092.66;;;12.90;100.00
30554;BME280;17335;50.720;7.452;2023-05-01T07:34:26;99091.31;;;13.03;100.00
30554;BME280;17335;50.720;7.452;2023-05-01T07:36:53;99094.34;;;13.08;100.00
30554;BME280;17335;50.720;7.452;2023-05-01T07:39:20;99086.09;;;13.18;100.00
30554;BME280;17335;50.720;7.452;2023-05-01T07:41:47;99083.59;;;13.24;100.00
30554;BME280;17335;50.720;7.452;2023-05-01T07:44:13;99089.84;;;13.41;100.00
30554;BME280;17335;50.720;7.452;2023-05-01T07:46:40;99082.44;;;13.43;100.00
30554;BME280;17335;50.720;7.452;2023-05-01T07:49:06;99090.34;;;13.53;100.00
30554;BME280;17335;50.720;7.452;2023-05-01T07:51:33;99085.75;;;13.70;100.00
30554;BME280;17335;50.720;7.452;2023-05-01T07:54:00;99086.63;;;13.71;100.00
30554;BME280;17335;50.720;7.452;2023-05-01T07:56:30;99092.00;;;13.71;100.00
30554;BME280;17335;50.720;7.452;2023-05-01T07:58:56;99087.09;;;13.82;100.00
30554;BME280;17335;50.720;7.452;2023-05-01T08:01:23;99080.66;;;13.92;100.00
30554;BME280;17335;50.720;7.452;2023-05-01T08:03:50;99081.31;;;14.02;100.00
30554;BME280;17335;50.720;7.452;2023-05-01T08:06:16;99078.78;;;14.00;100.00
30554;BME280;17335;50.720;7.452;2023-05-01T08:08:44;99086.09;;;14.31;100.00
30554;BME280;17335;50.720;7.452;2023-05-01T08:11:10;99087.63;;;14.34;100.00
30554;BME280;17335;50.720;7.452;2023-05-01T08:13:37;99090.84;;;14.29;100.00
30554;BME280;17335;50.720;7.452;2023-05-01T08:16:04;99094.53;;;14.28;100.00
30554;BME280;17335;50.720;7.452;2023-05-01T08:18:30;99095.09;;;14.23;100.00
30554;BME280;17335;50.720;7.452;2023-05-01T08:20:57;99092.13;;;14.41;100.00
30554;BME280;17335;50.720;7.452;2023-05-01T08:23:23;99091.38;;;14.64;100.00
30554;BME280;17335;50.720;7.452;2023-05-01T08:25:51;99092.78;;;14.83;100.00
30554;BME280;17335;50.720;7.452;2023-05-01T08:28:18;99088.47;;;14.97;100.00
30554;BME280;17335;50.720;7.452;2023-05-01T08:30:48;99080.00;;;15.23;100.00
30554;BME280;17335;50.720;7.452;2023-05-01T08:33:14;99083.47;;;15.32;100.00
30554;BME280;17335;50.720;7.452;2023-05-01T08:35:41;99084.38;;;15.24;100.00
30554;BME280;17335;50.720;7.452;2023-05-01T08:38:09;99077.31;;;15.61;100.00
30554;BME280;17335;50.720;7.452;2023-05-01T08:40:37;99077.72;;;15.88;100.00
30554;BME280;17335;50.720;7.452;2023-05-01T08:43:04;99077.56;;;16.04;100.00
30554;BME280;17335;50.720;7.452;2023-05-01T08:45:33;99075.78;;;16.26;100.00
30554;BME280;17335;50.720;7.452;2023-05-01T08:48:07;99077.81;;;16.24;100.00
30554;BME280;17335;50.720;7.452;2023-05-01T08:50:37;99083.69;;;16.28;100.00
30554;BME280;17335;50.720;7.452;2023-05-01T08:53:07;99067.44;;;16.28;100.00
30554;BME280;17335;50.720;7.452;2023-05-01T08:55:34;99066.56;;;16.57;100.00
30554;BME280;17335;50.720;7.452;2023-05-01T08:58:02;99061.94;;;16.73;100.00
30554;BME280;17335;50.720;7.452;2023-05-01T09:00:30;99066.22;;;16.82;100.00
30554;BME280;17335;50.720;7.452;2023-05-01T09:03:00;99060.56;;;16.98;98.28
30554;BME280;17335;50.720;7.452;2023-05-01T09:05:30;99063.63;;;16.74;92.00
30554;BME280;17335;50.720;7.452;2023-05-01T09:07:58;99062.44;;;16.98;100.00
30554;BME280;17335;50.720;7.452;2023-05-01T09:10:25;99067.19;;;17.11;100.00
30554;BME280;17335;50.720;7.452;2023-05-01T09:12:55;99064.00;;;17.29;98.58
30554;BME280;17335;50.720;7.452;2023-05-01T09:15:25;99059.75;;;17.48;100.00
30554;BME280;17335;50.720;7.452;2023-05-01T09:17:53;99059.13;;;17.46;100.00
30554;BME280;17335;50.720;7.452;2023-05-01T09:20:20;99047.84;;;17.42;100.00
30554;BME280;17335;50.720;7.452;2023-05-01T09:22:48;99054.59;;;17.53;100.00
30554;BME280;17335;50.720;7.452;2023-05-01T09:25:14;99051.34;;;17.64;100.00
30554;BME280;17335;50.720;7.452;2023-05-01T09:27:42;99051.78;;;17.68;100.00
30554;BME280;17335;50.720;7.452;2023-05-01T09:30:10;99047.63;;;17.72;100.00
30554;BME280;17335;50.720;7.452;2023-05-01T09:33:10;99051.47;;;17.84;100.00
30554;BME280;17335;50.720;7.452;2023-05-01T09:35:51;99050.31;;;17.93;100.00
30554;BME280;17335;50.720;7.452;2023-05-01T09:38:23;99051.91;;;18.16;100.00
30554;BME280;17335;50.720;7.452;2023-05-01T09:40:50;99045.88;;;18.27;100.00
30554;BME280;17335;50.720;7.452;2023-05-01T09:43:28;99042.38;;;18.40;100.00
30554;BME280;17335;50.720;7.452;2023-05-01T09:46:02;99036.19;;;18.66;100.00
30554;BME280;17335;50.720;7.452;2023-05-01T09:48:30;99037.47;;;18.77;94.96
30554;BME280;17335;50.720;7.452;2023-05-01T09:51:19;99036.41;;;18.65;86.24
30554;BME280;17335;50.720;7.452;2023-05-01T09:53:45;99040.09;;;18.44;85.53
30554;BME280;17335;50.720;7.452;2023-05-01T09:56:13;99036.97;;;18.47;100.00
30554;BME280;17335;50.720;7.452;2023-05-01T09:58:40;99036.34;;;18.45;100.00
30554;BME280;17335;50.720;7.452;2023-05-01T10:01:06;99038.81;;;18.33;100.00
30554;BME280;17335;50.720;7.452;2023-05-01T10:03:34;99032.50;;;18.32;100.00
30554;BME280;17335;50.720;7.452;2023-05-01T10:06:01;99027.47;;;18.23;100.00
30554;BME280;17335;50.720;7.452;2023-05-01T10:08:46;99030.50;;;18.41;100.00
30554;BME280;17335;50.720;7.452;2023-05-01T10:11:13;99033.00;;;18.49;100.00
30554;BME280;17335;50.720;7.452;2023-05-01T10:13:40;99033.22;;;18.48;99.81
30554;BME280;17335;50.720;7.452;2023-05-01T10:16:27;99027.97;;;18.40;97.52
30554;BME280;17335;50.720;7.452;2023-05-01T10:18:55;99034.09;;;18.13;100.00
30554;BME280;17335;50.720;7.452;2023-05-01T10:21:27;99028.31;;;18.23;100.00
30554;BME280;17335;50.720;7.452;2023-05-01T10:23:54;99034.31;;;18.12;98.45
30554;BME280;17335;50.720;7.452;2023-05-01T10:26:21;99023.75;;;18.30;100.00
30554;BME280;17335;50.720;7.452;2023-05-01T10:28:48;99036.34;;;18.45;100.00
30554;BME280;17335;50.720;7.452;2023-05-01T10:31:15;99027.56;;;18.49;99.78
30554;BME280;17335;50.720;7.452;2023-05-01T10:33:43;99020.94;;;18.72;89.53
30554;BME280;17335;50.720;7.452;2023-05-01T10:36:24;99024.56;;;18.86;92.84
30554;BME280;17335;50.720;7.452;2023-05-01T10:38:51;99018.94;;;19.01;90.06
30554;BME280;17335;50.720;7.452;2023-05-01T10:44:26;99017.28;;;19.33;84.44
30554;BME280;17335;50.720;7.452;2023-05-01T10:46:53;99012.03;;;19.52;83.69
30554;BME280;17335;50.720;7.452;2023-05-01T10:49:20;99018.72;;;19.49;79.67
30554;BME280;17335;50.720;7.452;2023-05-01T10:54:26;99008.25;;;19.66;76.72
30554;BME280;17335;50.720;7.452;2023-05-01T10:56:54;99005.13;;;19.76;81.00
30554;BME280;17335;50.720;7.452;2023-05-01T10:59:21;99002.09;;;20.04;77.32
30554;BME280;17335;50.720;7.452;2023-05-01T11:01:49;98994.91;;;20.16;74.00
30554;BME280;17335;50.720;7.452;2023-05-01T11:09:40;98996.97;;;20.28;75.65
30554;BME280;17335;50.720;7.452;2023-05-01T11:12:12;99003.50;;;20.20;74.98
30554;BME280;17335;50.720;7.452;2023-05-01T11:20:52;98984.50;;;20.52;65.26
30554;BME280;17335;50.720;7.452;2023-05-01T11:22:59;98984.59;;;20.77;67.93
30554;BME280;17335;50.720;7.452;2023-05-01T11:25:29;98982.03;;;20.82;68.18
30554;BME280;17335;50.720;7.452;2023-05-01T11:27:57;98984.13;;;20.80;57.88
30554;BME280;17335;50.720;7.452;2023-05-01T11:30:25;98978.19;;;20.90;57.63
30554;BME280;17335;50.720;7.452;2023-05-01T11:32:51;98980.53;;;20.86;50.15
30554;BME280;17335;50.720;7.452;2023-05-01T11:35:24;98966.63;;;20.56;49.32
30554;BME280;17335;50.720;7.452;2023-05-01T11:37:52;98973.09;;;20.23;56.51
30554;BME280;17335;50.720;7.452;2023-05-01T11:43:03;98970.59;;;20.60;63.17
30554;BME280;17335;50.720;7.452;2023-05-01T11:45:31;98969.13;;;20.57;59.38
30554;BME280;17335;50.720;7.452;2023-05-01T11:47:58;98970.97;;;20.25;58.33
30554;BME280;17335;50.720;7.452;2023-05-01T11:50:36;98967.78;;;19.96;59.80
30554;BME280;17335;50.720;7.452;2023-05-01T11:53:10;98969.09;;;19.67;58.32
30554;BME280;17335;50.720;7.452;2023-05-01T11:55:41;98966.59;;;19.45;59.80
30554;BME280;17335;50.720;7.452;2023-05-01T11:58:09;98972.91;;;19.39;60.25
30554;BME280;17335;50.720;7.452;2023-05-01T12:00:40;98966.19;;;19.22;68.98
30554;BME280;17335;50.720;7.452;2023-05-01T12:05:43;98969.75;;;19.02;81.60
30554;BME280;17335;50.720;7.452;2023-05-01T12:08:12;98969.75;;;18.82;72.64
30554;BME280;17335;50.720;7.452;2023-05-01T12:10:41;98972.00;;;18.65;80.03
30554;BME280;17335;50.720;7.452;2023-05-01T12:13:11;98971.16;;;18.65;73.21
30554;BME280;17335;50.720;7.452;2023-05-01T12:15:43;98966.09;;;18.42;73.57
30554;BME280;17335;50.720;7.452;2023-05-01T12:18:11;98986.97;;;18.34;100.00
30554;BME280;17335;50.720;7.452;2023-05-01T12:20:46;98981.50;;;18.21;99.76
30554;BME280;17335;50.720;7.452;2023-05-01T12:23:14;98978.13;;;18.12;99.24
30554;BME280;17335;50.720;7.452;2023-05-01T12:25:45;98979.75;;;18.07;94.68
30554;BME280;17335;50.720;7.452;2023-05-01T12:30:41;98977.19;;;17.92;98.14
30554;BME280;17335;50.720;7.452;2023-05-01T12:33:13;98985.72;;;17.89;97.30
30554;BME280;17335;50.720;7.452;2023-05-01T12:35:42;98983.09;;;17.74;100.00
30554;BME280;17335;50.720;7.452;2023-05-01T12:38:19;98979.06;;;17.63;100.00
30554;BME280;17335;50.720;7.452;2023-05-01T12:43:21;98984.38;;;17.43;100.00
30554;BME280;17335;50.720;7.452;2023-05-01T12:45:55;98993.13;;;17.38;100.00
30554;BME280;17335;50.720;7.452;2023-05-01T12:48:23;98993.75;;;17.40;100.00
30554;BME280;17335;50.720;7.452;2023-05-01T12:50:50;98991.94;;;17.48;100.00
30554;BME280;17335;50.720;7.452;2023-05-01T12:53:24;98988.63;;;17.52;100.00
30554;BME280;17335;50.720;7.452;2023-05-01T12:55:53;98990.59;;;17.37;100.00
30554;BME280;17335;50.720;7.452;2023-05-01T12:58:20;98992.63;;;17.28;100.00
30554;BME280;17335;50.720;7.452;2023-05-01T13:00:48;98997.94;;;17.15;100.00
30554;BME280;17335;50.720;7.452;2023-05-01T13:03:21;98995.28;;;17.00;100.00
30554;BME280;17335;50.720;7.452;2023-05-01T13:05:52;98991.00;;;17.12;100.00
30554;BME280;17335;50.720;7.452;2023-05-01T13:08:30;98994.78;;;17.11;100.00
30554;BME280;17335;50.720;7.452;2023-05-01T13:11:08;99000.41;;;17.10;100.00
30554;BME280;17335;50.720;7.452;2023-05-01T13:13:35;98987.09;;;17.15;100.00
30554;BME280;17335;50.720;7.452;2023-05-01T13:16:15;98987.19;;;17.28;100.00
30554;BME280;17335;50.720;7.452;2023-05-01T13:18:44;98978.06;;;17.36;100.00
30554;BME280;17335;50.720;7.452;2023-05-01T13:21:20;98979.41;;;17.47;100.00
30554;BME280;17335;50.720;7.452;2023-05-01T13:23:53;98986.09;;;17.51;100.00
30554;BME280;17335;50.720;7.452;2023-05-01T13:26:28;98979.28;;;17.61;100.00
30554;BME280;17335;50.720;7.452;2023-05-01T13:28:57;98972.44;;;17.66;100.00
30554;BME280;17335;50.720;7.452;2023-05-01T13:31:26;98981.25;;;17.74;100.00
30554;BME280;17335;50.720;7.452;2023-05-01T13:33:54;98980.50;;;17.87;100.00
30554;BME280;17335;50.720;7.452;2023-05-01T13:36:23;98978.84;;;17.93;100.00